Donie, Texas
Current Conditions -  °F | °C
As of 10:15 AM on Friday 21 Nov 2014 (Local Time) from KLXY Reporting Station
Overcast Overcast  
Wind Chill: 62°   Ceiling: 400
Heat Index: 62°   Visibility: 10mi
Dew Point: 60°   Wind: 8mph
Humidity: 96%   Direction: 130°SE
Pressure: 30.14"   Gusts: NA
Location:  31.48°N, 96.22°W
Report Text: KLXY 211615Z AUTO 13007KT 10SM OVC004 17/16 A3014 RMK AO2 T01650158
Loading
Personal Weather Stations






























Interactive Weather Map New forecast layout! Learn more

10-Day Weather Forecast

Advertisements
Track Severe Weather on mobile